createdAt,value
2022-11-21T00:01:21.575Z,75.95
2022-11-21T00:03:48.710Z,75.79
2022-11-21T00:06:19.447Z,75.85
2022-11-21T00:08:46.892Z,75.33
2022-11-21T00:11:14.072Z,75.17
2022-11-21T00:13:42.764Z,74.67
2022-11-21T00:16:15.006Z,74.92
2022-11-21T00:18:42.564Z,75.33
2022-11-21T00:21:19.474Z,74.01
2022-11-21T00:23:47.015Z,75.11
2022-11-21T00:26:15.713Z,73.64
2022-11-21T00:28:42.982Z,74.52
2022-11-21T00:31:23.703Z,74.07
2022-11-21T00:33:50.487Z,74.81
2022-11-21T00:36:17.192Z,74.48
2022-11-21T00:38:43.943Z,75.25
2022-11-21T00:41:13.663Z,75.95
2022-11-21T00:43:40.357Z,76.20
2022-11-21T00:46:07.056Z,76.81
2022-11-21T00:48:33.742Z,76.49
2022-11-21T00:51:03.567Z,77.21
2022-11-21T00:53:30.591Z,77.09
2022-11-21T00:55:57.817Z,77.42
2022-11-21T00:58:24.751Z,77.50
2022-11-21T01:00:53.085Z,77.36
2022-11-21T01:03:19.817Z,77.72
2022-11-21T01:05:46.482Z,77.21
2022-11-21T01:08:13.120Z,77.25
2022-11-21T01:10:39.948Z,77.24
2022-11-21T01:13:07.600Z,77.73
2022-11-21T01:15:34.793Z,78.14
2022-11-21T01:18:01.580Z,78.01
2022-11-21T01:20:28.279Z,78.08
2022-11-21T01:22:55.174Z,78.05
2022-11-21T01:25:21.840Z,78.33
2022-11-21T01:27:48.483Z,78.73
2022-11-21T01:30:17.857Z,78.73
2022-11-21T01:32:48.411Z,78.30
2022-11-21T01:35:15.427Z,78.59
2022-11-21T01:37:49.194Z,78.79
2022-11-21T01:40:16.314Z,79.21
2022-11-21T01:42:53.459Z,78.34
2022-11-21T01:45:59.760Z,77.86
2022-11-21T01:48:57.648Z,77.54
2022-11-21T01:51:57.553Z,77.71
2022-11-21T01:54:36.952Z,77.00
2022-11-21T01:57:10.109Z,76.48
2022-11-21T01:59:45.338Z,76.79
2022-11-21T02:02:20.818Z,76.32
2022-11-21T02:04:48.563Z,76.55
2022-11-21T02:07:18.402Z,76.42
2022-11-21T02:09:50.956Z,76.72
2022-11-21T02:12:38.442Z,76.79
2022-11-21T02:15:05.949Z,76.73
2022-11-21T02:17:35.524Z,76.40
2022-11-21T02:20:09.418Z,76.67
2022-11-21T02:22:43.567Z,76.83
2022-11-21T02:25:15.138Z,77.38
2022-11-21T02:27:42.252Z,77.18
2022-11-21T02:30:11.247Z,76.91
2022-11-21T02:32:41.195Z,76.62
2022-11-21T02:35:11.078Z,77.25
2022-11-21T02:37:37.860Z,76.97
2022-11-21T02:40:16.370Z,76.91
2022-11-21T02:42:56.523Z,76.69
2022-11-21T02:45:29.039Z,76.69
2022-11-21T02:48:02.232Z,77.25
2022-11-21T02:50:33.695Z,77.20
2022-11-21T02:53:00.892Z,77.38
2022-11-21T02:55:32.618Z,77.04
2022-11-21T02:58:04.647Z,77.65
2022-11-21T03:00:33.629Z,77.74
2022-11-21T03:03:00.330Z,78.22
2022-11-21T03:05:27.497Z,78.12
2022-11-21T03:07:54.242Z,78.25
2022-11-21T03:10:21.052Z,78.26
2022-11-21T03:12:47.782Z,78.41
2022-11-21T03:15:17.255Z,78.77
2022-11-21T03:17:45.809Z,78.80
2022-11-21T03:20:13.193Z,78.61
2022-11-21T03:22:39.858Z,78.70
2022-11-21T03:25:06.645Z,79.02
2022-11-21T03:27:33.365Z,79.52
2022-11-21T03:30:00.080Z,78.78
2022-11-21T03:32:29.425Z,79.01
2022-11-21T03:34:56.452Z,78.63
2022-11-21T03:37:37.479Z,78.28
2022-11-21T03:40:04.763Z,77.73
2022-11-21T03:42:31.309Z,77.17
2022-11-21T03:44:57.997Z,75.88
2022-11-21T03:47:27.443Z,75.99
2022-11-21T03:49:57.130Z,76.24
2022-11-21T03:52:23.754Z,76.65
2022-11-21T03:54:51.173Z,76.68
2022-11-21T03:57:17.958Z,76.29
2022-11-21T03:59:44.737Z,76.93
2022-11-21T04:02:11.292Z,76.69
2022-11-21T04:04:38.079Z,76.84
2022-11-21T04:07:04.823Z,76.50
2022-11-21T04:09:32.693Z,76.75
2022-11-21T04:12:00.279Z,77.02
2022-11-21T04:14:29.623Z,77.24
2022-11-21T04:16:56.527Z,76.52
2022-11-21T04:19:23.164Z,76.67
2022-11-21T04:21:49.831Z,77.12
2022-11-21T04:24:16.491Z,76.93
2022-11-21T04:26:43.168Z,76.72
2022-11-21T04:29:09.844Z,77.22
2022-11-21T04:31:36.799Z,78.17
2022-11-21T04:34:06.338Z,78.30
2022-11-21T04:36:36.211Z,77.34
2022-11-21T04:39:03.251Z,77.33
2022-11-21T04:41:29.785Z,77.82
2022-11-21T04:43:58.620Z,77.60
2022-11-21T04:46:25.362Z,77.97
2022-11-21T04:48:55.273Z,77.94
2022-11-21T04:51:22.213Z,78.58
2022-11-21T04:53:48.939Z,78.51
2022-11-21T04:56:16.559Z,78.40
2022-11-21T04:58:44.848Z,78.24
2022-11-21T05:01:11.902Z,78.15
2022-11-21T05:03:38.757Z,78.28
2022-11-21T05:06:05.919Z,78.14
2022-11-21T05:08:32.737Z,77.34
2022-11-21T05:11:19.741Z,76.22
2022-11-21T05:13:46.463Z,76.45
2022-11-21T05:16:15.520Z,76.32
2022-11-21T05:18:42.838Z,76.40
2022-11-21T05:21:11.651Z,76.52
2022-11-21T05:23:40.017Z,76.54
2022-11-21T05:26:06.700Z,77.15
2022-11-21T05:28:33.302Z,77.15
2022-11-21T05:31:01.778Z,76.85
2022-11-21T05:33:29.793Z,76.29
2022-11-21T05:35:56.523Z,76.53
2022-11-21T05:38:25.057Z,76.55
2022-11-21T05:40:54.724Z,77.78
2022-11-21T05:43:40.011Z,77.46
2022-11-21T05:46:08.782Z,77.75
2022-11-21T05:48:36.920Z,77.74
2022-11-21T05:51:06.525Z,77.83
2022-11-21T05:53:34.259Z,77.76
2022-11-21T05:56:12.847Z,77.88
2022-11-21T05:58:40.158Z,78.17
2022-11-21T06:01:08.641Z,78.78
2022-11-21T06:03:38.461Z,78.26
2022-11-21T06:06:14.242Z,78.01
2022-11-21T06:08:43.097Z,78.03
2022-11-21T06:11:14.845Z,77.83
2022-11-21T06:13:42.490Z,77.97
2022-11-21T06:16:15.236Z,78.09
2022-11-21T06:18:44.303Z,78.15
2022-11-21T06:21:17.392Z,78.16
2022-11-21T06:23:45.511Z,78.25
2022-11-21T06:26:17.260Z,78.32
2022-11-21T06:28:45.035Z,78.87
2022-11-21T06:31:14.551Z,78.70
2022-11-21T06:33:42.325Z,79.05
2022-11-21T06:36:12.355Z,78.98
2022-11-21T06:38:39.849Z,78.76
2022-11-21T06:41:13.387Z,78.56
2022-11-21T06:43:40.712Z,78.87
2022-11-21T06:46:08.122Z,78.26
2022-11-21T06:48:36.120Z,78.60
2022-11-21T06:51:19.214Z,78.57
2022-11-21T06:53:48.305Z,78.83
2022-11-21T06:56:15.617Z,78.15
2022-11-21T06:58:42.335Z,78.36
2022-11-21T07:01:10.705Z,78.01
2022-11-21T07:03:37.786Z,78.08
2022-11-21T07:06:13.872Z,78.60
2022-11-21T07:08:41.189Z,78.61
2022-11-21T07:11:24.660Z,78.97
2022-11-21T07:13:53.123Z,79.04
2022-11-21T07:16:19.887Z,78.87
2022-11-21T07:18:52.217Z,79.00
2022-11-21T07:21:19.749Z,78.56
2022-11-21T07:23:55.822Z,78.00
2022-11-21T07:26:25.295Z,77.33
2022-11-21T07:28:52.453Z,77.02
2022-11-21T07:31:22.012Z,76.37
2022-11-21T07:33:48.701Z,74.76
2022-11-21T07:36:15.433Z,75.20
2022-11-21T07:38:45.949Z,75.02
2022-11-21T07:41:12.618Z,73.89
2022-11-21T07:43:39.366Z,73.63
2022-11-21T07:46:08.872Z,72.91
2022-11-21T07:48:35.547Z,71.79
2022-11-21T07:51:08.284Z,72.04
2022-11-21T07:53:40.178Z,71.45
2022-11-21T07:56:09.581Z,70.07
2022-11-21T07:58:36.666Z,70.96
2022-11-21T08:01:07.593Z,70.62
2022-11-21T08:03:34.675Z,70.00
2022-11-21T08:06:06.614Z,70.29
2022-11-21T08:08:33.204Z,68.56
2022-11-21T08:11:07.109Z,69.21
2022-11-21T08:13:35.518Z,69.78
2022-11-21T08:16:05.750Z,69.10
2022-11-21T08:18:32.757Z,69.22
2022-11-21T08:21:04.023Z,67.67
2022-11-21T08:23:31.968Z,67.49
2022-11-21T08:25:59.022Z,66.64
2022-11-21T08:28:28.619Z,65.90
2022-11-21T08:30:55.509Z,66.65
2022-11-21T08:33:22.970Z,67.40
2022-11-21T08:35:49.821Z,66.35
2022-11-21T08:38:16.574Z,65.49
2022-11-21T08:40:43.553Z,65.85
2022-11-21T08:43:10.420Z,66.10
2022-11-21T08:45:38.581Z,65.39
2022-11-21T08:48:12.056Z,66.33
2022-11-21T08:50:38.898Z,66.48
2022-11-21T08:53:05.823Z,65.27
2022-11-21T08:55:35.761Z,65.13
2022-11-21T08:58:02.406Z,64.54
2022-11-21T09:00:29.498Z,65.27
2022-11-21T09:02:56.401Z,64.41
2022-11-21T09:05:26.317Z,64.61
2022-11-21T09:07:57.706Z,64.72
2022-11-21T09:10:25.374Z,64.14
2022-11-21T09:12:59.653Z,63.50
2022-11-21T09:15:44.906Z,62.51
2022-11-21T09:18:13.993Z,63.09
2022-11-21T09:20:43.078Z,64.16
2022-11-21T09:23:15.552Z,63.61
2022-11-21T09:25:44.526Z,63.81
2022-11-21T09:28:14.941Z,64.86
2022-11-21T09:30:42.710Z,65.07
2022-11-21T09:33:14.666Z,64.35
2022-11-21T09:35:45.214Z,63.17
2022-11-21T09:38:11.876Z,62.86
2022-11-21T09:40:44.880Z,63.21
2022-11-21T09:43:28.630Z,62.12
2022-11-21T09:46:28.229Z,63.25
2022-11-21T09:48:58.904Z,62.03
2022-11-21T09:51:32.974Z,61.99
2022-11-21T09:54:19.980Z,61.34
2022-11-21T09:56:49.705Z,61.29
2022-11-21T09:59:35.846Z,61.58
2022-11-21T10:02:03.808Z,62.19
2022-11-21T10:04:31.799Z,61.36
2022-11-21T10:07:04.058Z,60.98
2022-11-21T10:09:44.610Z,60.34
2022-11-21T10:12:40.067Z,60.77
2022-11-21T10:15:40.251Z,63.19
2022-11-21T10:18:42.228Z,61.46
2022-11-21T10:21:32.382Z,62.21
2022-11-21T10:24:02.391Z,63.36
2022-11-21T10:26:53.684Z,62.70
2022-11-21T10:29:27.587Z,63.25
2022-11-21T10:32:02.370Z,62.83
2022-11-21T10:34:37.799Z,62.79
2022-11-21T10:37:35.271Z,62.35
2022-11-21T10:40:35.460Z,61.66
2022-11-21T10:43:27.314Z,62.48
2022-11-21T10:45:56.610Z,61.73
2022-11-21T10:48:23.388Z,62.03
2022-11-21T10:51:04.682Z,59.71
2022-11-21T10:53:50.880Z,60.82
2022-11-21T10:56:20.480Z,60.17
2022-11-21T10:58:53.186Z,60.70
2022-11-21T11:01:31.619Z,60.48
2022-11-21T11:06:59.833Z,61.40
2022-11-21T11:09:32.374Z,60.75
2022-11-21T11:12:21.193Z,61.86
2022-11-21T11:14:56.418Z,62.21
2022-11-21T11:17:31.719Z,61.79
2022-11-21T11:20:08.051Z,62.02
2022-11-21T11:22:39.450Z,62.77
2022-11-21T11:25:09.300Z,61.73
2022-11-21T11:27:37.731Z,62.12
2022-11-21T11:30:09.145Z,62.03
2022-11-21T11:32:41.334Z,62.01
2022-11-21T11:35:17.041Z,61.60
2022-11-21T11:37:54.884Z,61.84
2022-11-21T11:40:28.667Z,62.78
2022-11-21T11:43:17.397Z,61.64
2022-11-21T11:46:33.525Z,62.21
2022-11-21T11:49:20.236Z,62.51
2022-11-21T11:52:00.440Z,62.15
2022-11-21T11:54:49.547Z,62.23
2022-11-21T11:57:31.005Z,61.79
2022-11-21T12:00:09.300Z,62.58
2022-11-21T12:02:56.279Z,61.98
2022-11-21T12:05:28.204Z,61.48
2022-11-21T12:12:08.614Z,61.56
2022-11-21T12:15:33.154Z,61.58
2022-11-21T12:18:23.542Z,62.02
2022-11-21T12:21:19.296Z,62.24
2022-11-21T12:23:53.778Z,62.41
2022-11-21T12:26:21.907Z,61.74
2022-11-21T12:28:51.911Z,62.44
2022-11-21T12:31:36.835Z,62.82
2022-11-21T12:34:21.344Z,62.85
2022-11-21T12:37:27.639Z,61.51
2022-11-21T12:40:12.336Z,62.47
2022-11-21T12:42:55.643Z,62.65
2022-11-21T12:45:47.815Z,62.89
2022-11-21T12:48:53.029Z,63.11
2022-11-21T12:52:02.147Z,63.17
2022-11-21T12:55:07.025Z,62.61
2022-11-21T12:57:50.633Z,62.43
2022-11-21T13:00:43.001Z,63.22
2022-11-21T13:03:20.398Z,62.56
2022-11-21T13:05:53.195Z,62.24
2022-11-21T13:08:29.335Z,61.95
2022-11-21T13:11:23.441Z,61.94
2022-11-21T13:14:17.878Z,62.46
2022-11-21T13:17:02.438Z,62.34
2022-11-21T13:19:59.059Z,62.26
2022-11-21T13:22:47.212Z,60.79
2022-11-21T13:25:41.940Z,62.06
2022-11-21T13:28:17.724Z,61.08
2022-11-21T13:30:49.826Z,61.17
2022-11-21T13:33:39.992Z,62.19
2022-11-21T13:36:40.566Z,61.83
2022-11-21T13:39:34.435Z,61.85
2022-11-21T13:42:28.854Z,62.54
2022-11-21T13:45:01.592Z,62.72
2022-11-21T13:48:00.495Z,62.83
2022-11-21T13:50:52.718Z,62.42
2022-11-21T13:53:58.659Z,62.09
2022-11-21T13:56:40.366Z,62.05
2022-11-21T13:59:20.309Z,61.61
2022-11-21T14:02:13.808Z,61.79
2022-11-21T14:05:08.056Z,61.73
2022-11-21T14:07:39.010Z,62.24
2022-11-21T14:10:37.569Z,60.89
2022-11-21T14:13:07.542Z,61.63
2022-11-21T14:15:54.663Z,60.71
2022-11-21T14:18:39.429Z,60.99
2022-11-21T14:21:11.613Z,62.03
2022-11-21T14:23:58.579Z,62.74
2022-11-21T14:26:26.395Z,63.21
2022-11-21T14:28:53.175Z,63.29
2022-11-21T14:31:22.700Z,63.19
2022-11-21T14:33:51.286Z,63.36
2022-11-21T14:36:25.075Z,63.15
2022-11-21T14:39:21.082Z,63.07
2022-11-21T14:41:43.524Z,63.45
2022-11-21T14:44:10.082Z,63.87
2022-11-21T14:46:39.986Z,64.09
2022-11-21T14:49:29.538Z,64.23
2022-11-21T14:52:11.813Z,64.01
2022-11-21T14:55:30.194Z,64.08
2022-11-21T14:58:07.094Z,64.64
2022-11-21T15:01:02.543Z,64.40
2022-11-21T15:03:33.485Z,65.09
2022-11-21T15:06:08.774Z,65.42
2022-11-21T15:11:47.410Z,65.88
2022-11-21T15:14:47.319Z,67.43
2022-11-21T15:17:20.468Z,66.98
2022-11-21T15:19:47.545Z,67.19
2022-11-21T15:22:27.540Z,67.20
2022-11-21T15:25:16.290Z,66.92
2022-11-21T15:27:47.301Z,67.02
2022-11-21T15:30:14.026Z,66.60
2022-11-21T15:33:03.482Z,66.59
2022-11-21T15:35:53.615Z,67.23
2022-11-21T15:38:47.367Z,67.28
2022-11-21T15:41:14.636Z,66.51
2022-11-21T15:43:55.008Z,66.01
2022-11-21T15:46:35.950Z,65.91
2022-11-21T15:49:31.062Z,65.53
2022-11-21T15:52:10.527Z,65.50
2022-11-21T15:54:37.391Z,66.01
2022-11-21T15:57:04.235Z,66.16
2022-11-21T15:59:31.421Z,65.92
2022-11-21T16:01:58.785Z,65.10
2022-11-21T16:04:26.503Z,63.89
2022-11-21T16:07:00.813Z,65.22
2022-11-21T16:09:29.643Z,65.16
2022-11-21T16:11:56.833Z,66.27
2022-11-21T16:14:23.886Z,65.41
2022-11-21T16:16:53.695Z,65.85
2022-11-21T16:19:23.805Z,65.20
2022-11-21T16:21:51.089Z,66.57
2022-11-21T16:24:33.069Z,66.17
2022-11-21T16:27:00.022Z,66.11
2022-11-21T16:29:27.215Z,67.00
2022-11-21T16:31:59.652Z,66.58
2022-11-21T16:34:32.833Z,66.80
2022-11-21T16:37:02.877Z,65.70
2022-11-21T16:39:34.332Z,66.49
2022-11-21T16:42:05.377Z,65.99
2022-11-21T16:44:32.227Z,66.85
2022-11-21T16:47:07.822Z,67.79
2022-11-21T16:49:35.370Z,67.23
2022-11-21T16:52:04.599Z,67.42
2022-11-21T16:54:31.227Z,67.22
2022-11-21T16:56:57.953Z,66.59
2022-11-21T16:59:24.728Z,67.20
2022-11-21T17:02:01.781Z,67.21
2022-11-21T17:04:28.437Z,67.93
2022-11-21T17:06:55.322Z,68.67
2022-11-21T17:09:22.450Z,69.38
2022-11-21T17:11:53.870Z,69.94
2022-11-21T17:14:20.638Z,70.37
2022-11-21T17:16:49.033Z,70.85
2022-11-21T17:19:16.440Z,71.29
2022-11-21T17:21:43.568Z,70.79
2022-11-21T17:24:12.885Z,71.69
2022-11-21T17:26:43.859Z,72.03
2022-11-21T17:29:16.827Z,72.32
2022-11-21T17:31:43.537Z,72.98
2022-11-21T17:34:11.926Z,72.47
2022-11-21T17:36:38.629Z,72.86
2022-11-21T17:39:05.617Z,72.55
2022-11-21T17:41:32.401Z,73.38
2022-11-21T17:44:01.064Z,72.92
2022-11-21T17:46:28.622Z,73.45
2022-11-21T17:48:58.779Z,73.15
2022-11-21T17:54:20.559Z,74.27
2022-11-21T17:56:55.274Z,73.63
2022-11-21T17:59:23.541Z,73.32
2022-11-21T18:01:50.335Z,73.08
2022-11-21T18:04:18.324Z,73.03
2022-11-21T18:06:45.293Z,73.19
2022-11-21T18:09:15.375Z,72.76
2022-11-21T18:11:43.871Z,72.83
2022-11-21T18:14:12.024Z,71.74
2022-11-21T18:16:49.398Z,71.55
2022-11-21T18:19:19.913Z,71.75
2022-11-21T18:21:46.904Z,72.59
2022-11-21T18:24:14.036Z,72.86
2022-11-21T18:26:43.519Z,73.12
2022-11-21T18:29:35.700Z,73.64
2022-11-21T18:32:03.216Z,73.64
2022-11-21T18:34:30.074Z,73.38
2022-11-21T18:37:00.025Z,73.98
2022-11-21T18:39:27.108Z,74.17
2022-11-21T18:41:53.941Z,74.65
2022-11-21T18:44:22.449Z,75.19
2022-11-21T18:46:53.742Z,75.03
2022-11-21T18:49:32.328Z,75.26
2022-11-21T18:52:01.084Z,76.35
2022-11-21T18:54:27.737Z,76.45
2022-11-21T18:56:58.853Z,76.25
2022-11-21T18:59:25.652Z,77.06
2022-11-21T19:01:53.812Z,77.47
2022-11-21T19:04:20.831Z,77.95
2022-11-21T19:06:52.673Z,77.88
2022-11-21T19:09:19.208Z,76.99
2022-11-21T19:11:46.301Z,76.51
2022-11-21T19:14:14.011Z,76.12
2022-11-21T19:16:41.829Z,74.51
2022-11-21T19:22:01.354Z,75.28
2022-11-21T19:24:28.267Z,75.61
2022-11-21T19:26:54.912Z,76.80
2022-11-21T19:29:21.880Z,76.97
2022-11-21T19:31:48.601Z,78.04
2022-11-21T19:34:16.148Z,78.13
2022-11-21T19:36:44.584Z,78.46
2022-11-21T19:39:11.897Z,78.29
2022-11-21T19:41:38.705Z,78.13
2022-11-21T19:44:13.007Z,76.88
2022-11-21T19:46:40.324Z,75.93
2022-11-21T19:49:08.521Z,76.76
2022-11-21T19:51:42.919Z,77.14
2022-11-21T19:54:12.781Z,77.25
2022-11-21T19:56:40.394Z,76.29
2022-11-21T19:59:11.523Z,76.30
2022-11-21T20:01:41.684Z,76.37
2022-11-21T20:04:08.690Z,75.52
2022-11-21T20:06:41.759Z,75.01
2022-11-21T20:09:12.100Z,75.24
2022-11-21T20:11:44.441Z,76.83
2022-11-21T20:14:19.521Z,77.55
2022-11-21T20:16:56.045Z,78.39
2022-11-21T20:19:27.200Z,79.09
2022-11-21T20:21:57.515Z,79.36
2022-11-21T20:24:24.385Z,78.54
2022-11-21T20:26:53.411Z,79.85
2022-11-21T20:29:23.481Z,80.05
2022-11-21T20:31:50.387Z,80.41
2022-11-21T20:34:18.512Z,80.45
2022-11-21T20:36:46.976Z,79.88
2022-11-21T20:39:16.228Z,80.15
2022-11-21T20:41:43.850Z,79.87
2022-11-21T20:45:29.935Z,79.98
2022-11-21T20:47:07.508Z,79.99
2022-11-21T20:49:35.353Z,79.50
2022-11-21T20:54:54.436Z,78.66
2022-11-21T20:57:28.518Z,78.86
2022-11-21T20:59:59.645Z,78.93
2022-11-21T21:02:31.381Z,79.18
2022-11-21T21:05:26.793Z,79.51
2022-11-21T21:07:56.765Z,78.87
2022-11-21T21:10:37.331Z,78.90
2022-11-21T21:13:15.376Z,79.44
2022-11-21T21:15:42.506Z,79.44
2022-11-21T21:18:14.148Z,79.44
2022-11-21T21:21:09.417Z,79.29
2022-11-21T21:23:38.699Z,79.61
2022-11-21T21:26:29.113Z,79.86
2022-11-21T21:28:58.575Z,80.25
2022-11-21T21:31:36.368Z,79.96
2022-11-21T21:34:09.776Z,80.52
2022-11-21T21:36:39.929Z,80.19
2022-11-21T21:39:12.052Z,80.22
2022-11-21T21:41:52.132Z,80.21
2022-11-21T21:44:33.253Z,79.47
2022-11-21T21:47:00.438Z,78.45
2022-11-21T21:49:29.768Z,78.01
2022-11-21T21:54:50.186Z,79.22
2022-11-21T21:57:17.345Z,78.72
2022-11-21T21:59:56.197Z,78.60
2022-11-21T22:02:26.501Z,78.82
2022-11-21T22:04:53.503Z,78.59
2022-11-21T22:07:23.657Z,78.62
2022-11-21T22:09:53.018Z,79.05
2022-11-21T22:12:19.887Z,79.37
2022-11-21T22:14:56.797Z,79.49
2022-11-21T22:17:25.525Z,78.49
2022-11-21T22:19:59.211Z,78.69
2022-11-21T22:22:26.807Z,79.37
2022-11-21T22:24:54.950Z,78.51
2022-11-21T22:27:25.515Z,78.62
2022-11-21T22:29:52.358Z,79.51
2022-11-21T22:32:20.030Z,78.77
2022-11-21T22:34:47.077Z,78.94
2022-11-21T22:37:14.158Z,78.72
2022-11-21T22:39:43.485Z,78.65
2022-11-21T22:42:13.407Z,78.89
2022-11-21T22:44:40.785Z,78.71
2022-11-21T22:47:11.259Z,78.11
2022-11-21T22:49:41.442Z,77.30
2022-11-21T22:52:17.001Z,77.23
2022-11-21T22:54:44.008Z,77.52
2022-11-21T22:57:16.634Z,77.58
2022-11-21T22:59:43.639Z,78.45
2022-11-21T23:02:16.633Z,78.80
2022-11-21T23:04:46.197Z,79.40
2022-11-21T23:07:16.137Z,79.57
2022-11-21T23:09:45.211Z,80.83
2022-11-21T23:12:13.021Z,79.81
2022-11-21T23:14:41.534Z,80.34
2022-11-21T23:17:08.959Z,79.50
2022-11-21T23:19:36.017Z,79.38
2022-11-21T23:22:02.717Z,79.34
2022-11-21T23:24:32.685Z,79.27
2022-11-21T23:26:59.315Z,78.86
2022-11-21T23:29:28.722Z,78.35
2022-11-21T23:31:55.569Z,77.82
2022-11-21T23:34:24.962Z,78.57
2022-11-21T23:36:51.664Z,78.62
2022-11-21T23:39:18.357Z,78.86
2022-11-21T23:41:48.210Z,79.01
2022-11-21T23:44:15.164Z,78.71
2022-11-21T23:46:42.326Z,79.19
2022-11-21T23:49:09.276Z,79.98
2022-11-21T23:51:35.883Z,79.21
2022-11-21T23:54:02.961Z,79.56
2022-11-21T23:56:37.274Z,78.63
2022-11-21T23:59:03.946Z,78.69
